Time;durP1;ratioP1;P1;durP2;ratioP2;P2;SDS_P1;SDS_P2;PMS_P1;PMS_P2;Temp;Humidity;BMP_temperature;BMP_pressure;BME280_temperature;BME280_humidity;BME280_pressure;Samples;Min_cycle;Max_cycle;Signal;HPM_P1;HPM_P2
2024/01/28 00:01:32;;;;;;;24.63;5.90;;;-0.10;99.90;;;3.81;100.00;102709.78;5039800;28;20037;-79
2024/01/28 00:03:58;;;;;;;18.17;6.10;;;0.00;99.90;;;3.79;100.00;102706.34;5012473;28;20033;-79
2024/01/28 00:06:24;;;;;;;16.20;5.72;;;0.00;99.90;;;4.07;100.00;102698.75;5040194;28;20633;-79
2024/01/28 00:08:49;;;;;;;17.75;5.78;;;0.10;99.90;;;4.28;100.00;102694.31;5039242;28;20037;-79
2024/01/28 00:11:15;;;;;;;15.88;5.60;;;-0.10;99.90;;;4.33;100.00;102693.94;5010189;28;20045;-79
2024/01/28 00:13:41;;;;;;;14.85;5.60;;;-0.20;99.90;;;4.12;100.00;102701.94;5012944;28;20099;-79
2024/01/28 00:16:18;;;;;;;20.00;5.28;;;-0.30;99.90;;;4.02;100.00;102693.72;5012220;28;20143;-79
2024/01/28 00:18:44;;;;;;;15.48;5.15;;;-0.50;99.90;;;3.81;100.00;102683.66;5029349;28;20163;-79
2024/01/28 00:21:11;;;;;;;10.60;4.95;;;-0.60;99.90;;;3.82;100.00;102682.66;5043389;28;20120;-79
2024/01/28 00:23:37;;;;;;;18.25;5.47;;;-0.70;99.90;;;3.78;100.00;102678.50;5014076;28;20030;-78
2024/01/28 00:26:03;;;;;;;19.15;5.35;;;-0.80;99.90;;;3.58;100.00;102671.94;5030717;28;20401;-78
2024/01/28 00:28:29;;;;;;;16.65;5.47;;;-0.90;99.90;;;3.46;100.00;102673.81;5030008;28;20445;-79
2024/01/28 00:30:55;;;;;;;19.23;6.20;;;-1.10;99.90;;;2.76;100.00;102670.97;5028149;28;20038;-79
2024/01/28 00:33:21;;;;;;;18.30;5.22;;;-1.10;99.90;;;2.68;100.00;102673.41;5027961;28;20035;-78
2024/01/28 00:35:47;;;;;;;15.98;5.47;;;-1.10;99.90;;;2.69;100.00;102675.13;5029932;28;20093;-78
2024/01/28 00:38:12;;;;;;;23.70;5.07;;;-0.90;99.90;;;2.75;100.00;102663.88;5029782;28;20095;-78
2024/01/28 00:40:38;;;;;;;20.10;5.80;;;-0.80;99.90;;;2.90;100.00;102679.88;5029463;28;20049;-78
2024/01/28 00:43:04;;;;;;;17.10;5.25;;;-0.60;99.90;;;3.23;100.00;102668.34;5029022;28;20037;-78
2024/01/28 00:45:31;;;;;;;21.40;5.13;;;-0.50;99.90;;;3.12;100.00;102673.69;5030059;28;20049;-78
2024/01/28 00:47:58;;;;;;;16.30;5.13;;;-0.50;99.90;;;3.27;100.00;102666.25;5017681;28;20396;-77
2024/01/28 00:50:24;;;;;;;18.27;5.88;;;-0.40;99.90;;;3.66;100.00;102674.94;5011848;28;20068;-77
2024/01/28 00:52:50;;;;;;;21.95;5.00;;;-0.40;99.90;;;3.82;100.00;102669.16;5029768;28;20114;-77
2024/01/28 00:55:15;;;;;;;14.85;5.15;;;-0.40;99.90;;;3.56;100.00;102658.59;5029560;28;20140;-77
2024/01/28 00:57:42;;;;;;;22.52;5.47;;;-0.40;99.90;;;3.15;100.00;102659.97;5029282;28;20033;-78
2024/01/28 01:00:09;;;;;;;14.90;5.15;;;-0.40;99.90;;;3.38;100.00;102660.03;5029604;28;20041;-77
2024/01/28 01:02:34;;;;;;;17.63;5.00;;;-0.50;99.90;;;3.55;100.00;102647.91;5039348;28;20092;-77
2024/01/28 01:05:00;;;;;;;14.23;4.78;;;-0.50;99.90;;;3.55;100.00;102646.09;5027622;28;20037;-77
2024/01/28 01:07:27;;;;;;;16.63;4.80;;;-0.70;99.90;;;3.55;100.00;102645.22;5027844;28;20057;-77
2024/01/28 01:09:52;;;;;;;21.33;5.22;;;-0.80;99.90;;;3.63;100.00;102645.47;5029263;28;20033;-77
2024/01/28 01:12:18;;;;;;;13.35;5.15;;;-0.70;99.90;;;3.74;100.00;102647.31;5028235;28;20478;-77
2024/01/28 01:14:44;;;;;;;13.73;4.85;;;-0.70;99.90;;;3.78;100.00;102643.41;5030606;28;20049;-77
2024/01/28 01:17:10;;;;;;;21.20;5.25;;;-0.70;99.90;;;3.81;100.00;102643.16;5028393;28;20037;-77
2024/01/28 01:19:35;;;;;;;17.42;4.70;;;-0.80;99.90;;;3.57;100.00;102636.03;5028772;28;20064;-77
2024/01/28 01:22:02;;;;;;;12.07;4.80;;;-0.80;99.90;;;3.48;100.00;102633.19;5012013;28;20120;-77
2024/01/28 01:24:29;;;;;;;14.85;5.00;;;-1.00;99.90;;;3.33;100.00;102630.72;5030173;28;20060;-77
2024/01/28 01:26:54;;;;;;;9.35;4.38;;;-1.20;99.90;;;3.31;100.00;102636.22;5029078;28;20053;-77
2024/01/28 01:29:20;;;;;;;13.15;4.82;;;-1.30;99.90;;;3.07;100.00;102635.44;5028775;28;20056;-77
2024/01/28 01:31:47;;;;;;;16.58;5.53;;;-1.40;99.90;;;3.06;100.00;102631.91;5029205;28;20501;-77
2024/01/28 01:34:13;;;;;;;20.10;5.80;;;-1.50;99.90;;;2.91;100.00;102623.13;5029652;28;20323;-77
2024/01/28 01:36:43;;;;;;;17.25;5.40;;;-1.60;99.90;;;2.91;100.00;102635.75;5044122;28;20116;-77
2024/01/28 01:39:09;;;;;;;16.20;5.25;;;-1.60;99.90;;;2.82;100.00;102622.00;5029547;28;20069;-77
2024/01/28 01:41:34;;;;;;;13.88;5.10;;;-1.70;99.90;;;2.51;100.00;102629.69;5044072;28;20069;-77
2024/01/28 01:44:00;;;;;;;22.27;5.63;;;-1.60;99.90;;;2.75;100.00;102633.38;5029406;28;20041;-77
2024/01/28 01:46:29;;;;;;;21.33;6.15;;;-1.40;99.90;;;2.75;100.00;102627.97;5028620;28;20041;-77
2024/01/28 01:48:56;;;;;;;20.15;6.03;;;-1.20;99.90;;;3.19;100.00;102621.03;5029485;28;20033;-77
2024/01/28 01:51:23;;;;;;;17.93;5.97;;;-1.20;99.90;;;3.40;100.00;102625.69;5028919;28;20045;-77
2024/01/28 01:53:51;;;;;;;19.53;6.00;;;-1.10;99.90;;;3.49;100.00;102616.00;5011426;28;20029;-77
2024/01/28 01:56:17;;;;;;;18.00;6.07;;;-1.10;99.90;;;3.48;100.00;102622.38;5028992;28;20033;-76
2024/01/28 01:58:44;;;;;;;15.68;5.57;;;-1.10;99.90;;;3.52;100.00;102613.94;5028097;28;20056;-77
2024/01/28 02:01:11;;;;;;;16.73;5.65;;;-1.10;99.90;;;3.45;100.00;102613.56;5012322;28;20030;-77
2024/01/28 02:03:37;;;;;;;14.63;5.63;;;-1.10;99.90;;;3.52;100.00;102619.34;5028825;28;20088;-77
2024/01/28 02:06:06;;;;;;;15.73;5.40;;;-1.00;99.90;;;3.65;100.00;102621.03;5028911;28;20064;-77
2024/01/28 02:08:31;;;;;;;19.17;6.22;;;-1.00;99.90;;;3.59;100.00;102617.00;5027986;28;20034;-77
2024/01/28 02:10:59;;;;;;;21.00;6.18;;;-1.00;99.90;;;3.54;100.00;102617.38;5029232;28;20373;-77
2024/01/28 02:13:25;;;;;;;19.23;5.63;;;-1.10;99.90;;;3.50;100.00;102607.81;5029092;28;20034;-76
2024/01/28 02:15:50;;;;;;;19.27;6.30;;;-1.10;99.90;;;3.37;100.00;102617.84;5044446;28;20098;-77
2024/01/28 02:18:16;;;;;;;16.88;5.65;;;-1.00;99.90;;;3.19;100.00;102609.34;5043907;28;20037;-77
2024/01/28 02:20:42;;;;;;;20.90;6.05;;;-0.90;99.90;;;3.04;100.00;102614.09;5043515;28;20052;-77
2024/01/28 02:23:08;;;;;;;13.80;5.95;;;-0.90;99.90;;;2.93;100.00;102613.09;5027880;28;20493;-76
2024/01/28 02:25:33;;;;;;;18.23;5.82;;;-1.00;99.90;;;2.94;100.00;102595.94;5025547;28;20046;-76
2024/01/28 02:27:59;;;;;;;17.73;6.18;;;-1.10;99.90;;;2.56;100.00;102588.94;5011432;28;20033;-77
2024/01/28 02:30:25;;;;;;;20.23;6.15;;;-1.20;99.90;;;2.69;100.00;102611.31;5027084;28;20053;-76
2024/01/28 02:32:52;;;;;;;21.90;6.03;;;-1.20;99.90;;;2.95;100.00;102603.06;5029087;28;20043;-77
2024/01/28 02:35:19;;;;;;;25.55;6.65;;;-1.30;99.90;;;3.02;100.00;102598.03;5028995;28;20048;-77
2024/01/28 02:37:45;;;;;;;22.98;7.03;;;-1.40;99.90;;;2.61;100.00;102600.22;5011238;28;20120;-77
2024/01/28 02:40:11;;;;;;;21.10;7.60;;;-1.50;99.90;;;2.78;100.00;102595.41;5028827;28;22074;-77
2024/01/28 02:42:37;;;;;;;27.23;9.00;;;-1.60;99.90;;;2.84;100.00;102600.31;5028533;28;20112;-77
2024/01/28 02:45:03;;;;;;;25.95;8.73;;;-1.60;99.90;;;2.99;100.00;102607.22;5028879;28;20409;-77
2024/01/28 02:47:29;;;;;;;18.65;7.82;;;-1.50;99.90;;;3.07;100.00;102605.78;5028689;28;20179;-76
2024/01/28 02:49:55;;;;;;;15.88;7.88;;;-1.60;99.90;;;2.94;100.00;102598.66;5029001;28;20388;-77
2024/01/28 02:52:20;;;;;;;18.50;7.15;;;-1.60;99.90;;;3.02;100.00;102593.50;5028808;28;20045;-77
2024/01/28 02:54:46;;;;;;;19.52;7.40;;;-1.60;99.90;;;2.72;100.00;102604.81;5031528;28;20079;-77
2024/01/28 02:57:12;;;;;;;20.70;7.00;;;-1.60;99.90;;;2.59;100.00;102596.78;5048294;28;20412;-77
2024/01/28 02:59:37;;;;;;;17.38;6.78;;;-1.60;99.90;;;2.83;100.00;102603.97;5032281;28;20046;-77
2024/01/28 03:02:03;;;;;;;18.60;6.68;;;-1.60;99.90;;;2.94;100.00;102587.84;5032035;28;20049;-76
2024/01/28 03:04:29;;;;;;;23.15;6.60;;;-1.50;99.90;;;2.73;100.00;102591.22;5031360;28;20504;-76
2024/01/28 03:06:55;;;;;;;17.02;6.15;;;-1.50;99.90;;;2.85;100.00;102581.34;5032547;28;20477;-77
2024/01/28 03:09:20;;;;;;;19.52;6.20;;;-1.60;99.90;;;2.72;100.00;102578.72;5031666;28;20041;-77
2024/01/28 03:11:46;;;;;;;16.50;5.78;;;-1.50;99.90;;;2.75;100.00;102577.59;5014642;28;20477;-76
2024/01/28 03:14:12;;;;;;;20.65;6.93;;;-1.60;99.90;;;2.91;100.00;102577.28;5031933;28;20095;-77
2024/01/28 03:16:38;;;;;;;21.70;6.10;;;-1.60;99.90;;;3.04;100.00;102573.66;5014326;28;20477;-76
2024/01/28 03:19:04;;;;;;;24.98;6.22;;;-1.70;99.90;;;3.16;100.00;102572.66;5032486;28;20030;-77
2024/01/28 03:21:30;;;;;;;15.57;5.88;;;-1.60;99.90;;;3.22;100.00;102569.53;5032014;28;20120;-77
2024/01/28 03:23:56;;;;;;;16.27;5.50;;;-1.50;99.90;;;2.82;100.00;102561.81;5031434;28;20083;-77
2024/01/28 03:26:22;;;;;;;16.80;5.78;;;-1.40;99.90;;;3.19;100.00;102567.06;5028514;28;20040;-76
2024/01/28 03:28:48;;;;;;;13.52;5.50;;;-1.40;99.90;;;3.08;100.00;102558.94;5011397;28;20064;-75
2024/01/28 03:31:14;;;;;;;16.33;5.55;;;-1.50;99.90;;;2.95;100.00;102557.22;5032156;28;20041;-76
2024/01/28 03:33:40;;;;;;;22.52;5.63;;;-1.50;99.90;;;2.96;100.00;102564.31;5031559;28;20481;-77
2024/01/28 03:36:07;;;;;;;17.63;5.30;;;-1.50;99.90;;;3.14;100.00;102558.44;5014184;28;20040;-76
2024/01/28 03:38:32;;;;;;;14.88;4.90;;;-1.60;99.90;;;3.09;100.00;102569.63;5031653;28;20033;-76
2024/01/28 03:40:58;;;;;;;21.67;5.95;;;-1.60;99.90;;;2.96;100.00;102574.25;5032007;28;20080;-76
2024/01/28 03:43:24;;;;;;;15.73;5.63;;;-1.60;99.90;;;2.82;100.00;102567.22;5030668;28;20405;-76
2024/01/28 03:45:49;;;;;;;12.40;4.97;;;-1.70;99.90;;;2.90;100.00;102558.53;5014110;28;20048;-78
2024/01/28 03:48:15;;;;;;;16.38;5.05;;;-1.80;99.90;;;2.90;100.00;102561.25;5030751;28;20039;-76
2024/01/28 03:50:41;;;;;;;14.30;5.47;;;-1.90;99.90;;;2.62;100.00;102556.13;5016269;28;20485;-78
2024/01/28 03:53:06;;;;;;;14.55;5.30;;;-2.00;99.90;;;2.27;100.00;102562.34;5030494;28;20033;-79
2024/01/28 03:55:32;;;;;;;17.25;5.00;;;-2.00;99.90;;;2.46;100.00;102556.44;5031629;28;20041;-78
2024/01/28 03:57:58;;;;;;;16.20;5.20;;;-2.10;99.90;;;2.36;100.00;102564.34;5031420;28;20047;-78
2024/01/28 04:00:28;;;;;;;16.83;5.00;;;-2.10;99.90;;;2.36;100.00;102560.81;5030978;28;20104;-78
2024/01/28 04:02:56;;;;;;;21.60;5.20;;;-2.20;99.90;;;2.20;100.00;102561.94;5045667;28;20063;-78
2024/01/28 04:05:23;;;;;;;13.55;5.60;;;-1.90;99.90;;;2.18;100.00;102550.44;5013416;28;20487;-78
2024/01/28 04:07:49;;;;;;;16.77;5.55;;;-1.60;99.90;;;2.76;100.00;102559.63;5021577;28;20037;-78
2024/01/28 04:10:16;;;;;;;19.25;5.28;;;-1.50;99.90;;;2.98;100.00;102556.09;5030782;28;20069;-78
2024/01/28 04:12:42;;;;;;;16.40;6.45;;;-1.50;99.90;;;2.78;100.00;102549.56;5030032;28;20414;-78
2024/01/28 04:15:08;;;;;;;14.02;5.97;;;-1.50;99.90;;;3.03;100.00;102548.50;5013972;28;20118;-78
2024/01/28 04:17:33;;;;;;;14.70;5.78;;;-1.50;99.90;;;3.05;100.00;102545.69;5031221;28;20029;-78
2024/01/28 04:19:59;;;;;;;17.15;6.00;;;-1.50;99.90;;;3.14;100.00;102545.84;5025510;28;20037;-78
2024/01/28 04:22:26;;;;;;;15.20;5.45;;;-1.40;99.90;;;3.16;100.00;102540.31;5030960;28;20572;-78
2024/01/28 04:24:52;;;;;;;17.40;5.38;;;-1.40;99.90;;;3.23;100.00;102541.56;5013725;28;20041;-78
2024/01/28 04:27:17;;;;;;;19.85;7.13;;;-1.40;99.90;;;3.20;100.00;102535.53;5030233;28;20376;-78
2024/01/28 04:29:43;;;;;;;14.63;6.65;;;-1.40;99.90;;;3.11;100.00;102534.41;5030522;28;20041;-78
2024/01/28 04:32:11;;;;;;;21.38;7.47;;;-1.50;99.90;;;3.09;100.00;102528.28;5030516;28;20037;-78
2024/01/28 04:34:37;;;;;;;23.80;7.50;;;-1.60;99.90;;;3.13;100.00;102521.66;5013234;28;20136;-78
2024/01/28 04:37:03;;;;;;;20.65;6.85;;;-1.60;99.90;;;3.09;100.00;102528.28;5030804;28;20140;-78
2024/01/28 04:39:29;;;;;;;17.55;6.55;;;-1.50;99.90;;;3.08;100.00;102529.28;5030513;28;20080;-79
2024/01/28 04:41:55;;;;;;;15.60;6.22;;;-1.50;99.90;;;3.00;100.00;102528.03;5030431;28;20037;-78
2024/01/28 04:44:20;;;;;;;20.85;6.47;;;-1.40;99.90;;;3.01;100.00;102524.38;5045451;28;20506;-78
2024/01/28 04:46:46;;;;;;;23.92;7.03;;;-1.30;99.90;;;3.15;100.00;102525.97;5044803;28;20049;-78
2024/01/28 04:49:12;;;;;;;19.23;6.85;;;-1.20;99.90;;;3.17;100.00;102531.22;5030244;28;20111;-78
2024/01/28 04:51:37;;;;;;;20.25;5.50;;;-1.30;99.90;;;3.23;100.00;102524.50;5030423;28;20045;-78
2024/01/28 04:54:03;;;;;;;19.75;5.28;;;-1.30;99.90;;;3.28;100.00;102520.47;5030284;28;20038;-79
2024/01/28 04:56:29;;;;;;;17.85;5.32;;;-1.30;99.90;;;3.22;100.00;102523.66;5030092;28;20049;-78
2024/01/28 04:58:55;;;;;;;17.10;5.53;;;-1.30;99.90;;;3.20;100.00;102514.84;5010229;28;20030;-76
2024/01/28 05:01:20;;;;;;;16.35;5.60;;;-1.30;99.90;;;3.16;100.00;102516.91;5029683;28;20051;-76
2024/01/28 05:03:47;;;;;;;14.05;5.78;;;-1.50;99.90;;;3.09;100.00;102517.50;5029624;28;20051;-76
2024/01/28 05:06:12;;;;;;;15.77;5.47;;;-1.60;99.90;;;2.78;100.00;102511.81;5029741;28;20075;-76
2024/01/28 05:08:38;;;;;;;18.33;5.13;;;-1.70;99.90;;;2.51;100.00;102507.59;5029815;28;20476;-77
2024/01/28 05:11:05;;;;;;;19.52;5.63;;;-1.90;99.90;;;2.37;100.00;102493.34;5027190;28;20049;-76
2024/01/28 05:13:30;;;;;;;16.63;5.40;;;-2.10;99.90;;;2.09;100.00;102494.59;5045201;28;20152;-76
2024/01/28 05:15:56;;;;;;;17.58;5.05;;;-2.20;99.90;;;2.30;100.00;102500.19;5044424;28;20037;-79
2024/01/28 05:18:22;;;;;;;26.08;6.28;;;-1.90;99.90;;;2.67;100.00;102486.59;5029544;28;20068;-78
2024/01/28 05:20:48;;;;;;;13.15;5.00;;;-1.60;99.90;;;2.94;100.00;102490.78;5043888;28;20148;-78
2024/01/28 05:23:14;;;;;;;18.67;5.10;;;-1.50;99.90;;;2.71;100.00;102493.44;5029665;28;20037;-76
2024/01/28 05:25:40;;;;;;;17.92;5.50;;;-1.40;99.90;;;2.71;100.00;102496.16;5011851;28;20030;-77
2024/01/28 05:28:07;;;;;;;20.55;5.75;;;-1.30;99.90;;;2.62;100.00;102487.91;5029307;28;20040;-77
2024/01/28 05:30:33;;;;;;;13.30;4.85;;;-1.30;99.90;;;2.55;100.00;102501.88;5028827;28;20041;-77
2024/01/28 05:32:59;;;;;;;14.00;4.93;;;-1.40;99.90;;;2.80;100.00;102499.09;5029355;28;20369;-78
2024/01/28 05:35:25;;;;;;;18.48;4.50;;;-1.40;99.90;;;2.83;100.00;102504.22;5029631;28;20054;-78
2024/01/28 05:37:50;;;;;;;17.17;4.90;;;-1.60;99.90;;;2.42;100.00;102504.63;5045157;28;20029;-78
2024/01/28 05:40:16;;;;;;;14.88;4.68;;;-1.60;99.90;;;2.29;100.00;102502.03;5029423;28;20053;-78
2024/01/28 05:42:42;;;;;;;16.00;4.57;;;-1.40;99.90;;;2.37;100.00;102492.50;5044186;28;20114;-78
2024/01/28 05:45:08;;;;;;;17.13;5.00;;;-1.20;99.90;;;2.87;100.00;102500.31;5028780;28;20128;-78
2024/01/28 05:47:34;;;;;;;18.40;5.07;;;-1.20;99.90;;;3.12;100.00;102492.97;5028246;28;20041;-78
2024/01/28 05:49:59;;;;;;;18.17;4.70;;;-1.20;99.90;;;3.12;100.00;102488.47;5025772;28;20048;-77
2024/01/28 05:52:25;;;;;;;15.30;5.13;;;-1.30;99.90;;;2.78;100.00;102484.88;5038083;28;20042;-77
2024/01/28 05:54:51;;;;;;;17.42;4.88;;;-1.40;99.90;;;2.59;100.00;102473.69;5026381;28;20421;-77
2024/01/28 05:57:17;;;;;;;16.40;5.22;;;-1.40;99.90;;;2.51;100.00;102483.34;5009701;28;20029;-78
2024/01/28 05:59:42;;;;;;;16.05;5.13;;;-1.40;99.90;;;2.60;100.00;102477.22;5027259;28;20616;-78
2024/01/28 06:02:08;;;;;;;17.75;4.90;;;-1.60;99.90;;;2.39;100.00;102491.41;5025992;28;20119;-77
2024/01/28 06:04:34;;;;;;;16.30;4.80;;;-1.70;99.90;;;2.42;100.00;102493.00;5028237;28;20037;-77
2024/01/28 06:07:00;;;;;;;13.27;4.22;;;-1.80;99.90;;;2.53;100.00;102484.09;5028282;28;20045;-77
2024/01/28 06:09:26;;;;;;;22.92;5.30;;;-1.90;99.90;;;2.37;100.00;102487.09;5028479;28;20029;-77
2024/01/28 06:11:52;;;;;;;16.88;4.22;;;-1.90;99.90;;;2.55;100.00;102482.13;5028605;28;20038;-76
2024/01/28 06:14:18;;;;;;;16.80;5.30;;;-1.90;99.90;;;2.67;100.00;102481.19;5028307;28;20034;-76
2024/01/28 06:16:44;;;;;;;16.83;4.97;;;-1.90;99.90;;;2.59;100.00;102494.38;5029019;28;20036;-76
2024/01/28 06:19:09;;;;;;;19.50;5.50;;;-1.90;99.90;;;2.77;100.00;102489.38;5011265;28;20037;-76
2024/01/28 06:21:35;;;;;;;19.42;6.35;;;-1.80;99.90;;;2.75;100.00;102490.50;5011103;28;20037;-75
2024/01/28 06:24:01;;;;;;;17.40;6.22;;;-1.60;99.90;;;2.71;100.00;102485.34;5028513;28;20044;-77
2024/01/28 06:26:26;;;;;;;17.52;6.30;;;-1.40;99.90;;;2.66;100.00;102489.38;5030305;28;20037;-75
2024/01/28 06:28:52;;;;;;;16.90;5.80;;;-1.30;99.90;;;2.43;100.00;102489.31;5047245;28;20048;-77
2024/01/28 06:31:20;;;;;;;17.05;4.65;;;-1.20;99.90;;;2.63;100.00;102484.22;5033200;28;20037;-76
2024/01/28 06:33:46;;;;;;;17.70;4.85;;;-1.20;99.90;;;2.85;100.00;102491.50;5032782;28;20041;-77
2024/01/28 06:36:21;;;;;;;16.65;5.72;;;-1.10;99.90;;;2.83;100.00;102493.44;5032071;28;20129;-77
2024/01/28 06:38:48;;;;;;;22.85;4.72;;;-1.10;99.90;;;2.63;100.00;102487.78;5032829;28;20029;-77
2024/01/28 06:41:15;;;;;;;23.13;5.15;;;-1.00;99.90;;;2.67;100.00;102497.38;5014648;28;20045;-77
2024/01/28 06:43:41;;;;;;;17.25;5.00;;;-1.00;99.90;;;2.67;100.00;102497.38;5032514;28;20037;-77
2024/01/28 06:46:07;;;;;;;13.95;4.88;;;-1.00;99.90;;;2.62;100.00;102482.50;5030542;28;20093;-76
2024/01/28 06:48:32;;;;;;;19.90;4.93;;;-1.00;99.90;;;2.66;100.00;102482.16;5015966;28;20033;-77
2024/01/28 06:50:58;;;;;;;16.67;4.97;;;-1.00;99.90;;;2.57;100.00;102488.25;5031429;28;20045;-77
2024/01/28 06:53:24;;;;;;;12.45;4.43;;;-1.00;99.90;;;2.69;100.00;102498.09;5046917;28;20029;-77
2024/01/28 06:55:50;;;;;;;13.23;4.53;;;-0.80;99.90;;;2.68;100.00;102487.41;5015312;28;20933;-77
2024/01/28 06:58:15;;;;;;;19.90;5.18;;;-0.70;99.90;;;2.81;100.00;102495.41;5014943;28;20076;-76
2024/01/28 07:00:41;;;;;;;13.93;3.95;;;-0.60;99.90;;;2.91;100.00;102484.75;5032531;28;20087;-77
2024/01/28 07:03:07;;;;;;;18.75;4.10;;;-0.50;99.90;;;2.87;100.00;102489.53;5031744;28;20057;-76
2024/01/28 07:05:33;;;;;;;16.88;4.50;;;-0.50;99.90;;;2.85;100.00;102486.09;5033306;28;20153;-76
2024/01/28 07:07:59;;;;;;;17.15;4.25;;;-0.40;99.90;;;2.78;100.00;102464.16;5031310;28;20338;-77
2024/01/28 07:10:24;;;;;;;16.35;4.25;;;-0.30;99.90;;;3.07;100.00;102474.50;5032035;28;20049;-76
2024/01/28 07:12:50;;;;;;;15.93;3.83;;;-0.20;99.90;;;3.10;100.00;102471.53;5032042;28;20033;-77
2024/01/28 07:15:16;;;;;;;22.52;3.80;;;-0.20;99.90;;;3.07;100.00;102470.91;5029776;28;20481;-76
2024/01/28 07:17:42;;;;;;;15.30;3.45;;;-0.30;99.90;;;3.24;100.00;102466.88;5014265;28;20048;-76
2024/01/28 07:20:08;;;;;;;14.65;4.13;;;-0.30;99.90;;;3.72;100.00;102457.59;5047226;28;20036;-77
2024/01/28 07:22:34;;;;;;;12.48;3.80;;;-0.50;99.90;;;3.87;100.00;102448.22;5031392;28;20465;-77
2024/01/28 07:25:00;;;;;;;14.90;3.75;;;-0.50;99.90;;;3.93;100.00;102457.66;5029387;28;20048;-76
2024/01/28 07:27:26;;;;;;;13.80;3.95;;;-0.50;99.90;;;4.00;100.00;102452.59;5012991;28;20115;-76
2024/01/28 07:29:51;;;;;;;14.43;4.18;;;-0.50;99.90;;;3.98;100.00;102451.88;5014082;28;20036;-77
2024/01/28 07:32:17;;;;;;;20.60;4.63;;;-0.50;99.90;;;3.38;100.00;102455.81;5031355;28;20492;-77
2024/01/28 07:34:42;;;;;;;12.38;4.15;;;-0.50;99.90;;;3.27;100.00;102453.13;5030831;28;20044;-79
2024/01/28 07:37:08;;;;;;;17.35;4.25;;;-0.30;99.90;;;3.19;100.00;102455.59;5031216;28;20095;-75
2024/01/28 07:39:34;;;;;;;12.23;3.97;;;-0.20;99.90;;;3.23;100.00;102462.47;5029997;28;20178;-75
2024/01/28 07:42:00;;;;;;;19.52;3.90;;;-0.10;99.90;;;3.28;100.00;102461.09;5031203;28;20486;-76
2024/01/28 07:44:26;;;;;;;17.10;4.18;;;0.00;99.90;;;3.67;100.00;102451.69;5010450;28;20107;-77
2024/01/28 07:46:53;;;;;;;19.00;4.07;;;0.20;99.90;;;4.04;100.00;102445.94;5029345;28;20520;-76
2024/01/28 07:49:20;;;;;;;18.88;3.80;;;0.40;99.90;;;4.35;100.00;102445.16;5013852;28;20098;-76
2024/01/28 07:51:45;;;;;;;9.38;3.55;;;0.40;99.90;;;4.77;100.00;102453.25;5015885;28;20473;-75
2024/01/28 07:54:11;;;;;;;12.07;3.17;;;0.50;99.90;;;4.56;100.00;102447.88;5031387;28;20042;-76
2024/01/28 07:56:37;;;;;;;16.38;3.53;;;0.60;99.90;;;4.42;100.00;102447.22;5029923;28;20056;-75
2024/01/28 07:59:03;;;;;;;10.70;3.47;;;0.80;99.90;;;4.24;100.00;102446.94;5013949;28;20033;-76
2024/01/28 08:01:30;;;;;;;13.73;3.30;;;0.80;99.90;;;4.58;100.00;102451.31;5030062;28;20494;-74
2024/01/28 08:03:59;;;;;;;11.27;2.90;;;0.90;99.90;;;4.58;100.00;102451.31;5031639;28;20499;-76
2024/01/28 08:06:26;;;;;;;12.70;3.10;;;1.00;99.90;;;4.47;100.00;102452.25;5045865;28;20037;-76
2024/01/28 08:08:52;;;;;;;10.52;3.13;;;1.20;99.90;;;4.62;100.00;102455.47;5030942;28;20469;-75
2024/01/28 08:11:18;;;;;;;14.73;3.72;;;1.30;99.90;;;4.58;100.00;102452.16;5030845;28;20116;-76
2024/01/28 08:13:45;;;;;;;12.32;3.47;;;1.40;99.90;;;4.69;100.00;102440.41;5031058;28;20153;-77
2024/01/28 08:16:10;;;;;;;8.85;3.47;;;1.60;99.90;;;4.78;100.00;102432.50;5030941;28;20117;-76
2024/01/28 08:18:38;;;;;;;11.73;3.42;;;1.70;99.90;;;4.82;100.00;102423.13;5030930;28;20037;-76
2024/01/28 08:21:05;;;;;;;;;;;1.70;99.90;;;4.83;100.00;102431.09;5031115;28;20128;-77
2024/01/28 08:23:30;;;;;;;12.63;3.38;;;1.70;99.90;;;4.81;100.00;102437.63;5030507;28;19924;-77
2024/01/28 08:25:56;;;;;;;14.60;3.30;;;1.60;99.90;;;4.70;100.00;102428.59;5029162;28;20037;-79
2024/01/28 08:28:22;;;;;;;16.65;5.07;;;1.70;99.90;;;4.77;100.00;102434.34;5030382;28;20046;-78
2024/01/28 08:30:50;;;;;;;13.40;3.63;;;1.80;99.90;;;4.87;100.00;102431.69;5039184;28;20080;-78
2024/01/28 08:33:15;;;;;;;15.00;4.45;;;1.90;99.90;;;4.94;100.00;102430.13;5029557;28;20137;-79
2024/01/28 08:35:43;;;;;;;14.55;4.80;;;2.00;99.90;;;5.05;100.00;102423.78;5028473;28;20453;-78
2024/01/28 08:38:09;;;;;;;11.00;3.63;;;2.20;99.90;;;5.04;100.00;102420.22;5025552;28;20033;-75
2024/01/28 08:40:35;;;;;;;13.52;3.55;;;2.30;99.90;;;5.27;100.00;102416.44;5028227;28;20038;-75
2024/01/28 08:43:04;;;;;;;9.07;3.10;;;2.30;99.90;;;5.28;100.00;102421.72;5027452;28;20067;-75
2024/01/28 08:45:29;;;;;;;10.45;2.92;;;2.40;99.90;;;5.21;100.00;102417.84;5028996;28;20038;-76
2024/01/28 08:47:55;;;;;;;11.95;3.70;;;2.40;99.90;;;5.03;100.00;102423.06;5030274;28;20489;-76
2024/01/28 08:50:21;;;;;;;10.98;3.70;;;2.40;99.90;;;5.17;100.00;102429.94;5029287;28;20033;-77
2024/01/28 08:52:47;;;;;;;12.65;3.55;;;2.50;99.90;;;5.45;100.00;102422.03;5030476;28;20065;-77
2024/01/28 08:55:13;;;;;;;10.55;3.22;;;2.60;99.90;;;5.55;100.00;102419.34;5013288;28;20044;-77
2024/01/28 08:57:39;;;;;;;7.07;2.95;;;2.80;99.90;;;5.58;100.00;102419.94;5028943;28;20037;-77
2024/01/28 09:00:10;;;;;;;13.48;2.85;;;2.90;99.90;;;5.70;100.00;102419.81;5030559;28;20076;-77
2024/01/28 09:02:38;;;;;;;11.18;3.08;;;3.00;99.90;;;5.86;100.00;102417.41;5045150;28;20052;-76
2024/01/28 09:05:04;;;;;;;12.23;3.22;;;3.10;99.90;;;6.19;100.00;102426.13;5030416;28;20145;-78
2024/01/28 09:07:30;;;;;;;12.57;3.88;;;3.30;99.90;;;6.31;100.00;102423.22;5029713;28;20044;-78
2024/01/28 09:09:56;;;;;;;11.23;2.72;;;3.40;99.90;;;6.46;100.00;102410.94;5028386;28;20056;-79
2024/01/28 09:12:24;;;;;;;15.15;3.08;;;3.50;99.90;;;6.52;100.00;102411.34;5029678;28;22060;-79
2024/01/28 09:14:49;;;;;;;7.97;2.90;;;3.60;99.90;;;6.36;99.03;102399.25;5045688;28;20033;-78
2024/01/28 09:17:15;;;;;;;7.85;2.47;;;3.80;99.90;;;6.63;97.35;102403.06;5029746;28;20090;-78
2024/01/28 09:19:41;;;;;;;8.63;2.33;;;3.80;99.90;;;6.73;97.16;102414.72;5044606;28;20033;-78
2024/01/28 09:22:06;;;;;;;7.57;2.20;;;3.90;99.90;;;6.71;94.28;102402.28;5029798;28;20049;-78
2024/01/28 09:24:32;;;;;;;13.05;2.55;;;4.00;99.90;;;7.05;95.68;102413.44;5030089;28;20437;-78
2024/01/28 09:26:59;;;;;;;7.78;2.25;;;;;;;7.18;95.08;102414.97;5025528;28;20421;-78
2024/01/28 09:29:27;;;;;;;7.68;2.10;;;;;;;7.30;94.38;102411.03;5029997;28;20037;-78
2024/01/28 09:31:55;;;;;;;10.73;2.33;;;;;;;7.26;91.57;102406.03;5029394;28;20063;-78
2024/01/28 09:34:23;;;;;;;7.57;2.30;;;;;;;7.46;91.75;102398.66;5012207;28;20033;-79
2024/01/28 09:36:49;;;;;;;13.10;1.92;;;4.10;99.90;;;7.34;88.76;102392.59;5008796;28;20072;-78
2024/01/28 09:39:15;;;;;;;8.90;2.10;;;4.70;99.90;;;7.79;89.43;102398.97;5012828;28;20033;-78
2024/01/28 09:42:16;;;;;;;9.43;2.00;;;4.80;99.90;;;7.86;87.36;102397.34;5029761;28;20492;-78
2024/01/28 09:44:42;;;;;;;12.32;3.00;;;4.90;99.90;;;8.13;84.82;102390.09;5025090;28;20041;-78
2024/01/28 09:47:08;;;;;;;9.60;2.20;;;5.10;99.90;;;8.36;80.41;102381.41;5029248;28;20087;-78
2024/01/28 09:49:39;;;;;;;6.40;2.00;;;;;;;8.57;77.82;102370.19;5029540;28;20068;-79
2024/01/28 09:52:08;;;;;;;8.32;2.08;;;;;;;8.56;76.63;102368.47;5028737;28;20133;-77
2024/01/28 09:54:34;;;;;;;10.20;2.92;;;;;;;8.86;73.86;102357.25;5029449;28;20048;-77
2024/01/28 09:57:02;;;;;;;7.93;2.35;;;;;;;8.95;71.77;102348.09;5028601;28;20037;-77
2024/01/28 09:59:29;;;;;;;6.10;1.90;;;;;;;9.59;69.16;102353.03;5028825;28;20129;-77
2024/01/28 10:01:56;;;;;;;7.53;2.33;;;;;;;10.17;65.88;102333.91;5028320;28;20064;-77
2024/01/28 10:04:23;;;;;;;7.50;1.85;;;;;;;10.35;63.51;102319.22;5028702;28;20048;-77
2024/01/28 10:06:49;;;;;;;10.75;2.38;;;;;;;11.13;61.47;102322.16;5027967;28;20382;-77
2024/01/28 10:09:16;;;;;;;8.68;2.35;;;;;;;11.60;57.71;102298.44;5028925;28;20480;-77